Terminal Aerodrome Forecast
Issued by NWS Jackson, MS

Home | Current Version | Previous Version | Text Only | Print | Product List | Glossary On
Versions: 1 2 3 4 5 6 7 8 9 10 11 12 13 14 15 16 17
000
FTUS44 KMEG 262320
TAFTUP
TAF
KTUP 262320Z 2700/2724 02013G19KT P6SM VCSH SCT010 OVC015
      TEMPO 2700/2702 -SHRA
     FM270300 02009KT P6SM BKN020 OVC090
     FM270700 01005KT P6SM SCT090
     FM271400 02008KT P6SM FEW040 BKN090
     FM271800 02010G16KT P6SM VCSH SCT025 OVC040=

USA.gov is the U.S. government's official web portal to all federal, state and local government web resources and services.